sensor_id;sensor_type;location;lat;lon;timestamp;P1;durP1;ratioP1;P2;durP2;ratioP2
13230;SDS011;6681;53.254;10.398;2023-03-21T00:00:42;27.73;;;19.57;;
13230;SDS011;6681;53.254;10.398;2023-03-21T00:03:08;31.97;;;23.07;;
13230;SDS011;6681;53.254;10.398;2023-03-21T00:05:34;28.20;;;20.40;;
13230;SDS011;6681;53.254;10.398;2023-03-21T00:08:07;36.70;;;22.87;;
13230;SDS011;6681;53.254;10.398;2023-03-21T00:10:33;30.83;;;22.93;;
13230;SDS011;6681;53.254;10.398;2023-03-21T00:12:59;30.17;;;22.17;;
13230;SDS011;6681;53.254;10.398;2023-03-21T00:15:24;32.63;;;23.17;;
13230;SDS011;6681;53.254;10.398;2023-03-21T00:17:55;35.37;;;22.03;;
13230;SDS011;6681;53.254;10.398;2023-03-21T00:20:27;30.83;;;22.17;;
13230;SDS011;6681;53.254;10.398;2023-03-21T00:22:54;32.33;;;24.43;;
13230;SDS011;6681;53.254;10.398;2023-03-21T00:25:20;34.77;;;23.73;;
13230;SDS011;6681;53.254;10.398;2023-03-21T00:27:45;28.53;;;21.37;;
13230;SDS011;6681;53.254;10.398;2023-03-21T00:30:11;41.03;;;25.00;;
13230;SDS011;6681;53.254;10.398;2023-03-21T00:32:39;31.67;;;24.00;;
13230;SDS011;6681;53.254;10.398;2023-03-21T00:35:06;29.60;;;23.87;;
13230;SDS011;6681;53.254;10.398;2023-03-21T00:37:31;31.47;;;22.00;;
13230;SDS011;6681;53.254;10.398;2023-03-21T00:39:57;27.97;;;20.77;;
13230;SDS011;6681;53.254;10.398;2023-03-21T00:42:22;28.63;;;21.70;;
13230;SDS011;6681;53.254;10.398;2023-03-21T00:44:48;32.67;;;22.10;;
13230;SDS011;6681;53.254;10.398;2023-03-21T00:47:14;26.47;;;20.87;;
13230;SDS011;6681;53.254;10.398;2023-03-21T00:49:39;28.10;;;20.47;;
13230;SDS011;6681;53.254;10.398;2023-03-21T00:52:06;31.13;;;22.57;;
13230;SDS011;6681;53.254;10.398;2023-03-21T00:54:34;31.43;;;21.57;;
13230;SDS011;6681;53.254;10.398;2023-03-21T00:57:02;28.37;;;20.83;;
13230;SDS011;6681;53.254;10.398;2023-03-21T00:59:29;28.43;;;20.70;;
13230;SDS011;6681;53.254;10.398;2023-03-21T01:01:55;30.60;;;21.17;;
13230;SDS011;6681;53.254;10.398;2023-03-21T01:04:24;27.47;;;21.03;;
13230;SDS011;6681;53.254;10.398;2023-03-21T01:06:50;31.60;;;22.40;;
13230;SDS011;6681;53.254;10.398;2023-03-21T01:09:17;30.07;;;21.70;;
13230;SDS011;6681;53.254;10.398;2023-03-21T01:11:48;30.97;;;21.67;;
13230;SDS011;6681;53.254;10.398;2023-03-21T01:14:15;26.60;;;19.97;;
13230;SDS011;6681;53.254;10.398;2023-03-21T01:16:42;26.90;;;20.07;;
13230;SDS011;6681;53.254;10.398;2023-03-21T01:19:09;27.60;;;19.83;;
13230;SDS011;6681;53.254;10.398;2023-03-21T01:21:37;30.60;;;22.47;;
13230;SDS011;6681;53.254;10.398;2023-03-21T01:24:03;28.73;;;21.20;;
13230;SDS011;6681;53.254;10.398;2023-03-21T01:26:29;31.97;;;22.13;;
13230;SDS011;6681;53.254;10.398;2023-03-21T01:28:54;28.83;;;20.27;;
13230;SDS011;6681;53.254;10.398;2023-03-21T01:31:20;29.63;;;21.27;;
13230;SDS011;6681;53.254;10.398;2023-03-21T01:33:46;27.17;;;18.90;;
13230;SDS011;6681;53.254;10.398;2023-03-21T01:36:16;26.13;;;19.17;;
13230;SDS011;6681;53.254;10.398;2023-03-21T01:38:46;32.03;;;20.83;;
13230;SDS011;6681;53.254;10.398;2023-03-21T01:41:17;26.97;;;19.90;;
13230;SDS011;6681;53.254;10.398;2023-03-21T01:43:44;28.60;;;19.83;;
13230;SDS011;6681;53.254;10.398;2023-03-21T01:46:19;29.57;;;21.43;;
13230;SDS011;6681;53.254;10.398;2023-03-21T01:49:27;29.83;;;20.63;;
13230;SDS011;6681;53.254;10.398;2023-03-21T01:52:10;25.53;;;18.80;;
13230;SDS011;6681;53.254;10.398;2023-03-21T01:54:40;24.07;;;18.23;;
13230;SDS011;6681;53.254;10.398;2023-03-21T01:57:08;25.13;;;19.07;;
13230;SDS011;6681;53.254;10.398;2023-03-21T01:59:40;25.87;;;20.53;;
13230;SDS011;6681;53.254;10.398;2023-03-21T02:02:07;29.17;;;20.97;;
13230;SDS011;6681;53.254;10.398;2023-03-21T02:04:36;27.50;;;20.43;;
13230;SDS011;6681;53.254;10.398;2023-03-21T02:07:10;26.77;;;20.93;;
13230;SDS011;6681;53.254;10.398;2023-03-21T02:09:39;25.20;;;17.73;;
13230;SDS011;6681;53.254;10.398;2023-03-21T02:12:08;28.80;;;20.43;;
13230;SDS011;6681;53.254;10.398;2023-03-21T02:14:35;27.70;;;20.03;;
13230;SDS011;6681;53.254;10.398;2023-03-21T02:28:13;24.03;;;18.97;;
13230;SDS011;6681;53.254;10.398;2023-03-21T02:39:13;26.30;;;20.37;;
13230;SDS011;6681;53.254;10.398;2023-03-21T02:47:23;26.10;;;18.87;;
13230;SDS011;6681;53.254;10.398;2023-03-21T02:52:37;26.83;;;20.90;;
13230;SDS011;6681;53.254;10.398;2023-03-21T02:55:11;28.27;;;18.63;;
13230;SDS011;6681;53.254;10.398;2023-03-21T02:57:44;24.93;;;19.07;;
13230;SDS011;6681;53.254;10.398;2023-03-21T03:00:17;24.57;;;20.27;;
13230;SDS011;6681;53.254;10.398;2023-03-21T03:02:45;26.40;;;19.17;;
13230;SDS011;6681;53.254;10.398;2023-03-21T03:05:16;25.47;;;19.40;;
13230;SDS011;6681;53.254;10.398;2023-03-21T03:07:59;27.33;;;19.40;;
13230;SDS011;6681;53.254;10.398;2023-03-21T03:16:37;26.03;;;19.83;;
13230;SDS011;6681;53.254;10.398;2023-03-21T03:19:14;24.13;;;19.83;;
13230;SDS011;6681;53.254;10.398;2023-03-21T03:22:06;29.47;;;20.90;;
13230;SDS011;6681;53.254;10.398;2023-03-21T03:24:57;24.97;;;19.17;;
13230;SDS011;6681;53.254;10.398;2023-03-21T03:27:32;26.10;;;21.00;;
13230;SDS011;6681;53.254;10.398;2023-03-21T03:30:14;25.97;;;19.70;;
13230;SDS011;6681;53.254;10.398;2023-03-21T03:35:13;25.87;;;20.13;;
13230;SDS011;6681;53.254;10.398;2023-03-21T03:37:41;26.60;;;19.37;;
13230;SDS011;6681;53.254;10.398;2023-03-21T03:42:52;27.27;;;20.83;;
13230;SDS011;6681;53.254;10.398;2023-03-21T03:45:22;24.27;;;20.73;;
13230;SDS011;6681;53.254;10.398;2023-03-21T03:50:33;29.17;;;21.10;;
13230;SDS011;6681;53.254;10.398;2023-03-21T03:53:21;29.33;;;21.67;;
13230;SDS011;6681;53.254;10.398;2023-03-21T03:55:53;29.07;;;22.80;;
13230;SDS011;6681;53.254;10.398;2023-03-21T03:58:21;33.73;;;23.80;;
13230;SDS011;6681;53.254;10.398;2023-03-21T04:00:49;29.23;;;21.00;;
13230;SDS011;6681;53.254;10.398;2023-03-21T04:03:16;32.37;;;21.73;;
13230;SDS011;6681;53.254;10.398;2023-03-21T04:05:42;29.07;;;21.90;;
13230;SDS011;6681;53.254;10.398;2023-03-21T04:08:10;33.43;;;20.57;;
13230;SDS011;6681;53.254;10.398;2023-03-21T04:10:37;34.37;;;21.70;;
13230;SDS011;6681;53.254;10.398;2023-03-21T04:13:03;29.93;;;21.63;;
13230;SDS011;6681;53.254;10.398;2023-03-21T04:15:29;31.80;;;22.10;;
13230;SDS011;6681;53.254;10.398;2023-03-21T04:17:54;30.27;;;23.07;;
13230;SDS011;6681;53.254;10.398;2023-03-21T04:20:21;29.47;;;21.73;;
13230;SDS011;6681;53.254;10.398;2023-03-21T04:22:47;32.13;;;23.13;;
13230;SDS011;6681;53.254;10.398;2023-03-21T04:25:13;33.27;;;23.00;;
13230;SDS011;6681;53.254;10.398;2023-03-21T04:27:38;32.97;;;24.37;;
13230;SDS011;6681;53.254;10.398;2023-03-21T04:30:05;35.83;;;26.33;;
13230;SDS011;6681;53.254;10.398;2023-03-21T04:32:31;30.90;;;22.00;;
13230;SDS011;6681;53.254;10.398;2023-03-21T04:34:58;35.83;;;24.03;;
13230;SDS011;6681;53.254;10.398;2023-03-21T04:37:24;32.30;;;23.30;;
13230;SDS011;6681;53.254;10.398;2023-03-21T04:39:51;37.13;;;23.57;;
13230;SDS011;6681;53.254;10.398;2023-03-21T04:42:17;39.10;;;27.03;;
13230;SDS011;6681;53.254;10.398;2023-03-21T04:44:44;33.37;;;24.53;;
13230;SDS011;6681;53.254;10.398;2023-03-21T04:47:10;38.33;;;25.27;;
13230;SDS011;6681;53.254;10.398;2023-03-21T04:49:37;37.53;;;24.87;;
13230;SDS011;6681;53.254;10.398;2023-03-21T04:52:03;36.13;;;26.83;;
13230;SDS011;6681;53.254;10.398;2023-03-21T04:54:29;34.43;;;24.40;;
13230;SDS011;6681;53.254;10.398;2023-03-21T04:56:56;35.10;;;24.17;;
13230;SDS011;6681;53.254;10.398;2023-03-21T04:59:22;34.27;;;23.33;;
13230;SDS011;6681;53.254;10.398;2023-03-21T05:01:48;36.90;;;25.87;;
13230;SDS011;6681;53.254;10.398;2023-03-21T05:04:14;36.13;;;26.73;;
13230;SDS011;6681;53.254;10.398;2023-03-21T05:06:40;33.33;;;25.33;;
13230;SDS011;6681;53.254;10.398;2023-03-21T05:09:06;39.07;;;28.03;;
13230;SDS011;6681;53.254;10.398;2023-03-21T05:11:33;37.07;;;24.83;;
13230;SDS011;6681;53.254;10.398;2023-03-21T05:14:01;39.60;;;25.33;;
13230;SDS011;6681;53.254;10.398;2023-03-21T05:16:38;42.87;;;28.57;;
13230;SDS011;6681;53.254;10.398;2023-03-21T05:19:12;37.07;;;27.03;;
13230;SDS011;6681;53.254;10.398;2023-03-21T05:21:39;37.93;;;25.50;;
13230;SDS011;6681;53.254;10.398;2023-03-21T05:24:10;43.53;;;27.93;;
13230;SDS011;6681;53.254;10.398;2023-03-21T05:26:39;36.17;;;27.93;;
13230;SDS011;6681;53.254;10.398;2023-03-21T05:29:08;39.50;;;27.50;;
13230;SDS011;6681;53.254;10.398;2023-03-21T05:31:35;37.10;;;25.90;;
13230;SDS011;6681;53.254;10.398;2023-03-21T05:34:01;36.37;;;26.27;;
13230;SDS011;6681;53.254;10.398;2023-03-21T05:36:27;38.10;;;27.87;;
13230;SDS011;6681;53.254;10.398;2023-03-21T05:38:53;38.43;;;28.77;;
13230;SDS011;6681;53.254;10.398;2023-03-21T05:41:19;39.00;;;27.40;;
13230;SDS011;6681;53.254;10.398;2023-03-21T05:43:45;40.00;;;28.47;;
13230;SDS011;6681;53.254;10.398;2023-03-21T05:46:11;41.80;;;30.03;;
13230;SDS011;6681;53.254;10.398;2023-03-21T05:48:37;42.40;;;30.57;;
13230;SDS011;6681;53.254;10.398;2023-03-21T05:51:03;41.57;;;28.87;;
13230;SDS011;6681;53.254;10.398;2023-03-21T05:53:29;43.90;;;29.53;;
13230;SDS011;6681;53.254;10.398;2023-03-21T05:55:55;39.50;;;26.80;;
13230;SDS011;6681;53.254;10.398;2023-03-21T05:58:20;39.47;;;26.40;;
13230;SDS011;6681;53.254;10.398;2023-03-21T06:00:46;39.67;;;29.03;;
13230;SDS011;6681;53.254;10.398;2023-03-21T06:03:11;45.50;;;31.70;;
13230;SDS011;6681;53.254;10.398;2023-03-21T06:05:37;42.60;;;29.43;;
13230;SDS011;6681;53.254;10.398;2023-03-21T06:08:03;42.20;;;27.47;;
13230;SDS011;6681;53.254;10.398;2023-03-21T06:10:40;38.47;;;28.70;;
13230;SDS011;6681;53.254;10.398;2023-03-21T06:13:06;46.10;;;30.37;;
13230;SDS011;6681;53.254;10.398;2023-03-21T06:15:31;42.87;;;28.70;;
13230;SDS011;6681;53.254;10.398;2023-03-21T06:17:57;45.53;;;31.27;;
13230;SDS011;6681;53.254;10.398;2023-03-21T06:20:23;40.23;;;29.37;;
13230;SDS011;6681;53.254;10.398;2023-03-21T06:22:48;42.77;;;28.33;;
13230;SDS011;6681;53.254;10.398;2023-03-21T06:25:14;46.77;;;29.97;;
13230;SDS011;6681;53.254;10.398;2023-03-21T06:27:39;42.63;;;28.80;;
13230;SDS011;6681;53.254;10.398;2023-03-21T06:30:05;47.03;;;31.87;;
13230;SDS011;6681;53.254;10.398;2023-03-21T06:32:32;52.00;;;32.00;;
13230;SDS011;6681;53.254;10.398;2023-03-21T06:34:58;47.57;;;30.50;;
13230;SDS011;6681;53.254;10.398;2023-03-21T06:37:24;38.17;;;29.20;;
13230;SDS011;6681;53.254;10.398;2023-03-21T06:39:50;40.57;;;30.07;;
13230;SDS011;6681;53.254;10.398;2023-03-21T06:42:16;46.10;;;30.60;;
13230;SDS011;6681;53.254;10.398;2023-03-21T06:44:42;48.73;;;32.00;;
13230;SDS011;6681;53.254;10.398;2023-03-21T06:47:08;46.13;;;30.83;;
13230;SDS011;6681;53.254;10.398;2023-03-21T06:49:33;46.27;;;31.60;;
13230;SDS011;6681;53.254;10.398;2023-03-21T06:51:59;46.00;;;30.53;;
13230;SDS011;6681;53.254;10.398;2023-03-21T06:54:25;46.63;;;31.03;;
13230;SDS011;6681;53.254;10.398;2023-03-21T06:56:50;44.93;;;32.10;;
13230;SDS011;6681;53.254;10.398;2023-03-21T06:59:16;49.87;;;34.50;;
13230;SDS011;6681;53.254;10.398;2023-03-21T07:01:42;49.80;;;32.37;;
13230;SDS011;6681;53.254;10.398;2023-03-21T07:04:08;42.70;;;31.83;;
13230;SDS011;6681;53.254;10.398;2023-03-21T07:06:34;43.83;;;31.87;;
13230;SDS011;6681;53.254;10.398;2023-03-21T07:09:01;51.67;;;31.73;;
13230;SDS011;6681;53.254;10.398;2023-03-21T07:11:27;43.27;;;31.97;;
13230;SDS011;6681;53.254;10.398;2023-03-21T07:13:53;49.73;;;33.63;;
13230;SDS011;6681;53.254;10.398;2023-03-21T07:16:19;44.90;;;32.20;;
13230;SDS011;6681;53.254;10.398;2023-03-21T07:18:45;48.67;;;31.17;;
13230;SDS011;6681;53.254;10.398;2023-03-21T07:21:11;47.73;;;32.17;;
13230;SDS011;6681;53.254;10.398;2023-03-21T07:23:38;42.50;;;31.43;;
13230;SDS011;6681;53.254;10.398;2023-03-21T07:26:04;45.03;;;31.70;;
13230;SDS011;6681;53.254;10.398;2023-03-21T07:28:30;50.17;;;32.70;;
13230;SDS011;6681;53.254;10.398;2023-03-21T07:30:58;52.63;;;33.00;;
13230;SDS011;6681;53.254;10.398;2023-03-21T07:33:26;52.40;;;31.33;;
13230;SDS011;6681;53.254;10.398;2023-03-21T07:35:52;48.27;;;34.07;;
13230;SDS011;6681;53.254;10.398;2023-03-21T07:38:19;45.00;;;32.10;;
13230;SDS011;6681;53.254;10.398;2023-03-21T07:40:46;48.43;;;32.60;;
13230;SDS011;6681;53.254;10.398;2023-03-21T07:43:13;44.30;;;30.97;;
13230;SDS011;6681;53.254;10.398;2023-03-21T07:45:39;49.90;;;31.47;;
13230;SDS011;6681;53.254;10.398;2023-03-21T07:48:06;45.20;;;29.63;;
13230;SDS011;6681;53.254;10.398;2023-03-21T07:50:32;45.63;;;33.47;;
13230;SDS011;6681;53.254;10.398;2023-03-21T07:52:58;43.73;;;28.10;;
13230;SDS011;6681;53.254;10.398;2023-03-21T07:55:24;45.87;;;30.93;;
13230;SDS011;6681;53.254;10.398;2023-03-21T07:57:50;44.67;;;29.77;;
13230;SDS011;6681;53.254;10.398;2023-03-21T08:00:17;43.67;;;29.57;;
13230;SDS011;6681;53.254;10.398;2023-03-21T08:02:50;46.17;;;30.20;;
13230;SDS011;6681;53.254;10.398;2023-03-21T08:05:36;45.47;;;30.40;;
13230;SDS011;6681;53.254;10.398;2023-03-21T08:08:03;42.63;;;29.97;;
13230;SDS011;6681;53.254;10.398;2023-03-21T08:10:29;49.50;;;30.83;;
13230;SDS011;6681;53.254;10.398;2023-03-21T08:12:55;36.13;;;29.27;;
13230;SDS011;6681;53.254;10.398;2023-03-21T08:15:21;37.90;;;27.20;;
13230;SDS011;6681;53.254;10.398;2023-03-21T08:17:47;39.47;;;26.87;;
13230;SDS011;6681;53.254;10.398;2023-03-21T08:20:14;37.10;;;26.20;;
13230;SDS011;6681;53.254;10.398;2023-03-21T08:22:42;41.77;;;26.70;;
13230;SDS011;6681;53.254;10.398;2023-03-21T08:25:09;40.67;;;27.77;;
13230;SDS011;6681;53.254;10.398;2023-03-21T08:27:38;37.63;;;25.97;;
13230;SDS011;6681;53.254;10.398;2023-03-21T08:30:05;34.27;;;24.50;;
13230;SDS011;6681;53.254;10.398;2023-03-21T08:32:31;34.93;;;24.67;;
13230;SDS011;6681;53.254;10.398;2023-03-21T08:35:00;35.20;;;24.77;;
13230;SDS011;6681;53.254;10.398;2023-03-21T08:37:27;33.57;;;25.00;;
13230;SDS011;6681;53.254;10.398;2023-03-21T08:39:53;31.40;;;23.73;;
13230;SDS011;6681;53.254;10.398;2023-03-21T08:42:19;32.93;;;23.40;;
13230;SDS011;6681;53.254;10.398;2023-03-21T08:44:46;29.90;;;23.00;;
13230;SDS011;6681;53.254;10.398;2023-03-21T08:47:12;30.77;;;22.60;;
13230;SDS011;6681;53.254;10.398;2023-03-21T08:49:38;30.13;;;21.23;;
13230;SDS011;6681;53.254;10.398;2023-03-21T08:52:05;29.93;;;22.00;;
13230;SDS011;6681;53.254;10.398;2023-03-21T08:54:31;28.47;;;21.23;;
13230;SDS011;6681;53.254;10.398;2023-03-21T08:56:57;26.27;;;19.40;;
13230;SDS011;6681;53.254;10.398;2023-03-21T08:59:22;22.90;;;17.90;;
13230;SDS011;6681;53.254;10.398;2023-03-21T09:01:48;26.93;;;20.63;;
13230;SDS011;6681;53.254;10.398;2023-03-21T09:04:14;26.77;;;20.27;;
13230;SDS011;6681;53.254;10.398;2023-03-21T09:06:42;25.57;;;19.43;;
13230;SDS011;6681;53.254;10.398;2023-03-21T09:09:12;25.60;;;19.13;;
13230;SDS011;6681;53.254;10.398;2023-03-21T09:11:39;28.77;;;20.57;;
13230;SDS011;6681;53.254;10.398;2023-03-21T09:14:05;25.37;;;19.10;;
13230;SDS011;6681;53.254;10.398;2023-03-21T09:16:31;26.60;;;18.43;;
13230;SDS011;6681;53.254;10.398;2023-03-21T09:18:57;30.27;;;20.70;;
13230;SDS011;6681;53.254;10.398;2023-03-21T09:21:25;24.07;;;18.20;;
13230;SDS011;6681;53.254;10.398;2023-03-21T09:23:52;27.47;;;18.60;;
13230;SDS011;6681;53.254;10.398;2023-03-21T09:26:20;29.50;;;19.83;;
13230;SDS011;6681;53.254;10.398;2023-03-21T09:28:47;27.47;;;20.63;;
13230;SDS011;6681;53.254;10.398;2023-03-21T09:31:14;26.93;;;19.67;;
13230;SDS011;6681;53.254;10.398;2023-03-21T09:33:46;30.00;;;21.43;;
13230;SDS011;6681;53.254;10.398;2023-03-21T09:36:16;28.97;;;22.07;;
13230;SDS011;6681;53.254;10.398;2023-03-21T09:38:45;31.23;;;21.03;;
13230;SDS011;6681;53.254;10.398;2023-03-21T09:41:25;32.07;;;23.03;;
13230;SDS011;6681;53.254;10.398;2023-03-21T09:44:30;31.67;;;20.53;;
13230;SDS011;6681;53.254;10.398;2023-03-21T09:47:10;30.57;;;22.67;;
13230;SDS011;6681;53.254;10.398;2023-03-21T09:49:46;32.67;;;22.07;;
13230;SDS011;6681;53.254;10.398;2023-03-21T09:52:21;29.63;;;21.40;;
13230;SDS011;6681;53.254;10.398;2023-03-21T09:54:51;32.73;;;22.77;;
13230;SDS011;6681;53.254;10.398;2023-03-21T09:59:45;37.40;;;24.63;;
13230;SDS011;6681;53.254;10.398;2023-03-21T10:05:05;34.00;;;21.97;;
13230;SDS011;6681;53.254;10.398;2023-03-21T10:07:50;35.20;;;23.47;;
13230;SDS011;6681;53.254;10.398;2023-03-21T10:10:43;31.77;;;21.73;;
13230;SDS011;6681;53.254;10.398;2023-03-21T10:13:19;29.03;;;22.07;;
13230;SDS011;6681;53.254;10.398;2023-03-21T10:16:10;27.57;;;20.77;;
13230;SDS011;6681;53.254;10.398;2023-03-21T10:18:39;26.57;;;21.30;;
13230;SDS011;6681;53.254;10.398;2023-03-21T10:21:06;26.67;;;18.97;;
13230;SDS011;6681;53.254;10.398;2023-03-21T10:23:36;24.90;;;18.47;;
13230;SDS011;6681;53.254;10.398;2023-03-21T10:26:03;25.07;;;17.97;;
13230;SDS011;6681;53.254;10.398;2023-03-21T10:28:33;26.83;;;18.13;;
13230;SDS011;6681;53.254;10.398;2023-03-21T10:31:02;24.83;;;16.67;;
13230;SDS011;6681;53.254;10.398;2023-03-21T10:33:37;25.27;;;19.47;;
13230;SDS011;6681;53.254;10.398;2023-03-21T10:36:08;27.10;;;18.80;;
13230;SDS011;6681;53.254;10.398;2023-03-21T10:39:05;24.23;;;18.10;;
13230;SDS011;6681;53.254;10.398;2023-03-21T10:41:40;25.33;;;18.00;;
13230;SDS011;6681;53.254;10.398;2023-03-21T10:44:10;23.87;;;15.20;;
13230;SDS011;6681;53.254;10.398;2023-03-21T10:46:42;23.70;;;18.20;;
13230;SDS011;6681;53.254;10.398;2023-03-21T10:49:18;21.10;;;15.87;;
13230;SDS011;6681;53.254;10.398;2023-03-21T10:51:45;24.27;;;17.00;;
13230;SDS011;6681;53.254;10.398;2023-03-21T10:54:18;22.83;;;15.00;;
13230;SDS011;6681;53.254;10.398;2023-03-21T10:57:27;22.27;;;16.30;;
13230;SDS011;6681;53.254;10.398;2023-03-21T10:59:42;25.73;;;16.90;;
13230;SDS011;6681;53.254;10.398;2023-03-21T11:02:26;21.07;;;16.30;;
13230;SDS011;6681;53.254;10.398;2023-03-21T11:04:57;20.43;;;15.73;;
13230;SDS011;6681;53.254;10.398;2023-03-21T11:07:32;22.50;;;16.33;;
13230;SDS011;6681;53.254;10.398;2023-03-21T11:10:08;26.50;;;15.50;;
13230;SDS011;6681;53.254;10.398;2023-03-21T11:12:50;24.33;;;17.20;;
13230;SDS011;6681;53.254;10.398;2023-03-21T11:15:28;20.23;;;14.43;;
13230;SDS011;6681;53.254;10.398;2023-03-21T11:18:29;20.47;;;14.73;;
13230;SDS011;6681;53.254;10.398;2023-03-21T11:21:06;21.60;;;14.63;;
13230;SDS011;6681;53.254;10.398;2023-03-21T11:23:34;20.37;;;15.87;;
13230;SDS011;6681;53.254;10.398;2023-03-21T11:26:08;24.57;;;17.63;;
13230;SDS011;6681;53.254;10.398;2023-03-21T11:28:54;22.37;;;16.70;;
13230;SDS011;6681;53.254;10.398;2023-03-21T11:31:21;22.97;;;16.53;;
13230;SDS011;6681;53.254;10.398;2023-03-21T11:33:51;19.30;;;13.27;;
13230;SDS011;6681;53.254;10.398;2023-03-21T11:38:50;18.53;;;15.17;;
13230;SDS011;6681;53.254;10.398;2023-03-21T11:41:36;20.17;;;16.43;;
13230;SDS011;6681;53.254;10.398;2023-03-21T11:44:05;22.63;;;14.67;;
13230;SDS011;6681;53.254;10.398;2023-03-21T11:46:31;24.77;;;16.57;;
13230;SDS011;6681;53.254;10.398;2023-03-21T11:49:04;24.67;;;16.93;;
13230;SDS011;6681;53.254;10.398;2023-03-21T11:54:23;19.67;;;14.93;;
13230;SDS011;6681;53.254;10.398;2023-03-21T12:02:32;19.87;;;14.23;;
13230;SDS011;6681;53.254;10.398;2023-03-21T12:05:31;20.47;;;14.40;;
13230;SDS011;6681;53.254;10.398;2023-03-21T12:08:12;23.30;;;14.80;;
13230;SDS011;6681;53.254;10.398;2023-03-21T12:10:55;18.47;;;14.33;;
13230;SDS011;6681;53.254;10.398;2023-03-21T12:13:34;22.47;;;14.87;;
13230;SDS011;6681;53.254;10.398;2023-03-21T12:16:32;16.67;;;13.30;;
13230;SDS011;6681;53.254;10.398;2023-03-21T12:24:53;17.60;;;12.23;;
13230;SDS011;6681;53.254;10.398;2023-03-21T12:30:33;13.57;;;11.10;;
13230;SDS011;6681;53.254;10.398;2023-03-21T12:41:33;21.37;;;11.97;;
13230;SDS011;6681;53.254;10.398;2023-03-21T12:46:41;16.10;;;12.87;;
13230;SDS011;6681;53.254;10.398;2023-03-21T12:49:34;19.30;;;11.90;;
13230;SDS011;6681;53.254;10.398;2023-03-21T12:52:12;14.83;;;10.53;;
13230;SDS011;6681;53.254;10.398;2023-03-21T12:54:55;15.70;;;10.13;;
13230;SDS011;6681;53.254;10.398;2023-03-21T12:57:24;14.13;;;11.50;;
13230;SDS011;6681;53.254;10.398;2023-03-21T12:59:58;16.00;;;11.90;;
13230;SDS011;6681;53.254;10.398;2023-03-21T13:07:57;13.17;;;10.63;;
13230;SDS011;6681;53.254;10.398;2023-03-21T13:10:27;12.13;;;10.20;;
13230;SDS011;6681;53.254;10.398;2023-03-21T13:18:53;14.77;;;11.27;;
13230;SDS011;6681;53.254;10.398;2023-03-21T13:24:19;14.23;;;10.60;;
13230;SDS011;6681;53.254;10.398;2023-03-21T13:29:46;16.73;;;10.20;;
13230;SDS011;6681;53.254;10.398;2023-03-21T13:32:19;11.40;;;10.27;;
13230;SDS011;6681;53.254;10.398;2023-03-21T13:34:52;16.03;;;10.90;;
13230;SDS011;6681;53.254;10.398;2023-03-21T13:37:19;15.07;;;10.03;;
13230;SDS011;6681;53.254;10.398;2023-03-21T13:39:45;15.73;;;11.13;;
13230;SDS011;6681;53.254;10.398;2023-03-21T13:42:17;12.90;;;10.80;;
13230;SDS011;6681;53.254;10.398;2023-03-21T13:44:48;17.93;;;11.67;;
13230;SDS011;6681;53.254;10.398;2023-03-21T13:53:08;15.77;;;12.03;;
13230;SDS011;6681;53.254;10.398;2023-03-21T13:55:29;13.70;;;10.27;;
13230;SDS011;6681;53.254;10.398;2023-03-21T13:58:01;15.90;;;10.43;;
13230;SDS011;6681;53.254;10.398;2023-03-21T14:01:10;14.17;;;8.97;;
13230;SDS011;6681;53.254;10.398;2023-03-21T14:03:57;12.07;;;9.03;;
13230;SDS011;6681;53.254;10.398;2023-03-21T14:06:34;14.33;;;10.67;;
13230;SDS011;6681;53.254;10.398;2023-03-21T14:09:10;13.60;;;10.17;;
13230;SDS011;6681;53.254;10.398;2023-03-21T14:11:43;14.53;;;9.03;;
13230;SDS011;6681;53.254;10.398;2023-03-21T14:14:12;14.47;;;9.93;;
13230;SDS011;6681;53.254;10.398;2023-03-21T14:16:38;10.10;;;8.13;;
13230;SDS011;6681;53.254;10.398;2023-03-21T14:19:05;17.03;;;9.77;;
13230;SDS011;6681;53.254;10.398;2023-03-21T14:21:32;15.40;;;9.43;;
13230;SDS011;6681;53.254;10.398;2023-03-21T14:24:00;11.90;;;9.60;;
13230;SDS011;6681;53.254;10.398;2023-03-21T14:26:39;16.33;;;10.60;;
13230;SDS011;6681;53.254;10.398;2023-03-21T14:29:07;15.60;;;9.93;;
13230;SDS011;6681;53.254;10.398;2023-03-21T14:31:36;11.17;;;9.73;;
13230;SDS011;6681;53.254;10.398;2023-03-21T14:34:03;13.93;;;10.83;;
13230;SDS011;6681;53.254;10.398;2023-03-21T14:36:31;14.90;;;10.10;;
13230;SDS011;6681;53.254;10.398;2023-03-21T14:39:04;15.93;;;10.40;;
13230;SDS011;6681;53.254;10.398;2023-03-21T14:41:46;16.10;;;10.20;;
13230;SDS011;6681;53.254;10.398;2023-03-21T14:44:23;12.03;;;9.20;;
13230;SDS011;6681;53.254;10.398;2023-03-21T14:47:05;14.63;;;10.90;;
13230;SDS011;6681;53.254;10.398;2023-03-21T14:49:33;10.93;;;8.97;;
13230;SDS011;6681;53.254;10.398;2023-03-21T14:52:04;15.77;;;10.13;;
13230;SDS011;6681;53.254;10.398;2023-03-21T14:54:35;13.53;;;10.53;;
13230;SDS011;6681;53.254;10.398;2023-03-21T14:57:06;13.30;;;10.30;;
13230;SDS011;6681;53.254;10.398;2023-03-21T14:59:36;13.53;;;9.57;;
13230;SDS011;6681;53.254;10.398;2023-03-21T15:02:04;15.23;;;10.20;;
13230;SDS011;6681;53.254;10.398;2023-03-21T15:04:39;14.63;;;10.07;;
13230;SDS011;6681;53.254;10.398;2023-03-21T15:07:05;15.63;;;11.23;;
13230;SDS011;6681;53.254;10.398;2023-03-21T15:09:32;16.40;;;11.03;;
13230;SDS011;6681;53.254;10.398;2023-03-21T15:11:59;12.37;;;9.93;;
13230;SDS011;6681;53.254;10.398;2023-03-21T15:14:31;17.70;;;11.93;;
13230;SDS011;6681;53.254;10.398;2023-03-21T15:16:59;12.97;;;9.67;;
13230;SDS011;6681;53.254;10.398;2023-03-21T15:19:32;12.57;;;9.97;;
13230;SDS011;6681;53.254;10.398;2023-03-21T15:22:24;11.40;;;9.47;;
13230;SDS011;6681;53.254;10.398;2023-03-21T15:24:56;14.90;;;9.57;;
13230;SDS011;6681;53.254;10.398;2023-03-21T15:27:25;10.50;;;7.73;;
13230;SDS011;6681;53.254;10.398;2023-03-21T15:29:53;13.50;;;8.27;;
13230;SDS011;6681;53.254;10.398;2023-03-21T15:32:21;14.40;;;8.53;;
13230;SDS011;6681;53.254;10.398;2023-03-21T15:34:49;9.83;;;8.27;;
13230;SDS011;6681;53.254;10.398;2023-03-21T15:37:22;15.27;;;8.27;;
13230;SDS011;6681;53.254;10.398;2023-03-21T15:39:50;13.13;;;8.70;;
13230;SDS011;6681;53.254;10.398;2023-03-21T15:45:20;12.93;;;7.90;;
13230;SDS011;6681;53.254;10.398;2023-03-21T15:50:23;11.00;;;7.73;;
13230;SDS011;6681;53.254;10.398;2023-03-21T15:52:59;9.00;;;7.27;;
13230;SDS011;6681;53.254;10.398;2023-03-21T15:55:29;11.43;;;6.27;;
13230;SDS011;6681;53.254;10.398;2023-03-21T15:58:04;12.87;;;7.70;;
13230;SDS011;6681;53.254;10.398;2023-03-21T16:00:38;12.30;;;6.80;;
13230;SDS011;6681;53.254;10.398;2023-03-21T16:03:24;8.87;;;7.60;;
13230;SDS011;6681;53.254;10.398;2023-03-21T16:08:33;10.77;;;7.93;;
13230;SDS011;6681;53.254;10.398;2023-03-21T16:11:22;8.67;;;7.63;;
13230;SDS011;6681;53.254;10.398;2023-03-21T16:13:50;9.07;;;7.47;;
13230;SDS011;6681;53.254;10.398;2023-03-21T16:18:47;12.10;;;7.80;;
13230;SDS011;6681;53.254;10.398;2023-03-21T16:21:14;8.73;;;7.03;;
13230;SDS011;6681;53.254;10.398;2023-03-21T16:23:42;10.27;;;7.07;;
13230;SDS011;6681;53.254;10.398;2023-03-21T16:26:12;10.30;;;8.03;;
13230;SDS011;6681;53.254;10.398;2023-03-21T16:28:40;7.77;;;6.00;;
13230;SDS011;6681;53.254;10.398;2023-03-21T16:31:14;12.23;;;8.17;;
13230;SDS011;6681;53.254;10.398;2023-03-21T16:33:44;10.43;;;7.67;;